Time;durP1;ratioP1;P1;durP2;ratioP2;P2;SDS_P1;SDS_P2;PMS_P1;PMS_P2;Temp;Humidity;BMP_temperature;BMP_pressure;BME280_temperature;BME280_humidity;BME280_pressure;Samples;Min_cycle;Max_cycle;Signal;HPM_P1;HPM_P2
2023/09/10 00:01:39;;;;;;;17.03;10.07;;;19.70;92.70;;;;;;5151008;28;20206;-48
2023/09/10 00:04:09;;;;;;;14.70;10.17;;;19.60;93.20;;;;;;5150832;28;20186;-47
2023/09/10 00:06:41;;;;;;;16.30;9.03;;;19.60;93.90;;;;;;5152002;28;20451;-48
2023/09/10 00:09:11;;;;;;;12.30;9.00;;;19.60;94.40;;;;;;5146591;28;20350;-48
2023/09/10 00:11:42;;;;;;;12.43;9.77;;;19.70;95.10;;;;;;5126493;28;20516;-47
2023/09/10 00:14:13;;;;;;;16.00;10.00;;;19.50;95.80;;;;;;5157082;28;20204;-47
2023/09/10 00:16:43;;;;;;;11.50;9.43;;;19.50;96.00;;;;;;5154530;28;20304;-47
2023/09/10 00:19:15;;;;;;;12.07;9.23;;;19.50;96.60;;;;;;5151856;28;20265;-47
2023/09/10 00:21:46;;;;;;;9.37;8.40;;;19.40;97.10;;;;;;5152504;28;20291;-47
2023/09/10 00:24:20;;;;;;;13.10;9.50;;;19.40;97.60;;;;;;5150289;28;20496;-47
2023/09/10 00:26:51;;;;;;;12.77;9.37;;;19.30;98.10;;;;;;5150711;28;20182;-47
2023/09/10 00:29:21;;;;;;;14.80;8.73;;;19.30;98.80;;;;;;5157029;28;20439;-48
2023/09/10 00:31:52;;;;;;;15.13;10.83;;;19.20;99.30;;;;;;5155197;28;20476;-48
2023/09/10 00:34:23;;;;;;;10.83;9.70;;;19.20;99.90;;;;;;5152174;28;20209;-49
2023/09/10 00:36:54;;;;;;;17.87;9.30;;;19.10;99.90;;;;;;5154134;28;20192;-48
2023/09/10 00:39:25;;;;;;;15.47;10.40;;;19.10;99.90;;;;;;5161210;28;20247;-48
2023/09/10 00:41:56;;;;;;;11.77;9.50;;;19.10;99.90;;;;;;5150959;28;20247;-48
2023/09/10 00:44:26;;;;;;;11.73;9.00;;;19.10;99.90;;;;;;5157595;28;20447;-48
2023/09/10 00:46:57;;;;;;;15.50;9.47;;;19.10;99.90;;;;;;5159408;28;20177;-48
2023/09/10 00:49:29;;;;;;;12.67;9.60;;;19.00;99.90;;;;;;5162366;28;20641;-48
2023/09/10 00:52:01;;;;;;;14.93;9.70;;;19.00;99.90;;;;;;5159536;28;20209;-48
2023/09/10 00:54:52;;;;;;;15.97;9.57;;;19.00;99.90;;;;;;5153590;28;20989;-47
2023/09/10 00:57:24;;;;;;;14.00;9.60;;;19.00;99.90;;;;;;5155343;28;20440;-47
2023/09/10 00:59:55;;;;;;;12.10;9.50;;;19.00;99.90;;;;;;5162968;28;20471;-47
2023/09/10 01:02:26;;;;;;;13.70;10.07;;;19.00;99.90;;;;;;5158920;28;21039;-47
2023/09/10 01:04:57;;;;;;;12.30;9.13;;;18.90;99.90;;;;;;5160226;28;20556;-47
2023/09/10 01:07:28;;;;;;;11.63;9.50;;;18.90;99.90;;;;;;5156201;28;20441;-47
2023/09/10 01:09:58;;;;;;;11.17;9.10;;;18.80;99.90;;;;;;5153590;28;20197;-47
2023/09/10 01:12:52;;;;;;;16.80;9.47;;;18.80;99.90;;;;;;5158681;28;20713;-47
2023/09/10 01:15:28;;;;;;;14.07;10.03;;;18.70;99.90;;;;;;5151430;28;20221;-47
2023/09/10 01:18:37;;;;;;;16.60;10.27;;;18.70;99.90;;;;;;5155889;28;20423;-47
2023/09/10 01:21:36;;;;;;;10.60;9.37;;;18.60;99.90;;;;;;5170324;28;20444;-47
2023/09/10 01:24:47;;;;;;;12.93;9.80;;;18.60;99.90;;;;;;5144364;28;20448;-47
2023/09/10 01:27:18;;;;;;;10.00;8.90;;;18.50;99.90;;;;;;5158178;28;20459;-47
2023/09/10 01:29:49;;;;;;;11.90;9.93;;;18.40;99.90;;;;;;5157393;28;20486;-47
2023/09/10 01:32:29;;;;;;;13.87;10.07;;;18.40;99.90;;;;;;5151883;28;20205;-47
2023/09/10 01:35:15;;;;;;;12.63;10.17;;;18.30;99.90;;;;;;5157753;28;20212;-47
2023/09/10 01:38:12;;;;;;;12.60;11.10;;;18.30;99.90;;;;;;5169020;28;20447;-47
2023/09/10 01:40:49;;;;;;;13.70;9.73;;;18.30;99.90;;;;;;5150759;28;20472;-47
2023/09/10 01:43:20;;;;;;;12.00;10.30;;;18.20;99.90;;;;;;5153500;28;20560;-47
2023/09/10 01:45:51;;;;;;;10.47;9.40;;;18.20;99.90;;;;;;5155417;28;20446;-48
2023/09/10 01:48:26;;;;;;;10.63;9.53;;;18.20;99.90;;;;;;5140447;28;20504;-47
2023/09/10 01:50:57;;;;;;;14.47;10.60;;;18.10;99.90;;;;;;5153948;28;20474;-48
2023/09/10 01:53:27;;;;;;;12.97;10.80;;;18.10;99.90;;;;;;5156003;28;20436;-47
2023/09/10 01:55:58;;;;;;;14.13;10.63;;;18.00;99.90;;;;;;5151386;28;20247;-48
2023/09/10 01:58:29;;;;;;;14.47;10.17;;;18.00;99.90;;;;;;5162101;28;20184;-48
2023/09/10 02:01:00;;;;;;;21.33;12.23;;;18.00;99.90;;;;;;5159649;28;20657;-48
2023/09/10 02:03:30;;;;;;;14.23;11.17;;;18.00;99.90;;;;;;5160446;28;20216;-48
2023/09/10 02:06:03;;;;;;;12.57;10.13;;;18.10;99.90;;;;;;5153470;28;20183;-48
2023/09/10 02:08:34;;;;;;;13.97;11.00;;;18.10;99.90;;;;;;5157622;28;20188;-48
2023/09/10 02:11:05;;;;;;;14.00;11.47;;;18.10;99.90;;;;;;5139091;28;20972;-48
2023/09/10 02:13:36;;;;;;;15.83;11.50;;;18.10;99.90;;;;;;5157022;28;20717;-47
2023/09/10 02:16:08;;;;;;;15.13;10.20;;;18.10;99.90;;;;;;5151540;28;20580;-48
2023/09/10 02:18:38;;;;;;;15.27;10.30;;;18.10;99.90;;;;;;5155448;28;20218;-47
2023/09/10 02:21:10;;;;;;;14.20;11.00;;;18.10;99.90;;;;;;5147483;28;20482;-47
2023/09/10 02:23:45;;;;;;;15.40;11.67;;;18.00;99.90;;;;;;5155111;28;20440;-47
2023/09/10 02:26:16;;;;;;;19.60;11.27;;;18.00;99.90;;;;;;5154483;28;20450;-47
2023/09/10 02:28:46;;;;;;;16.30;11.83;;;18.00;99.90;;;;;;5162111;28;20428;-47
2023/09/10 02:31:20;;;;;;;14.80;10.87;;;18.00;99.90;;;;;;5156738;28;20209;-48
2023/09/10 02:33:50;;;;;;;12.67;10.63;;;17.90;99.90;;;;;;5156482;28;20264;-47
2023/09/10 02:36:21;;;;;;;15.60;11.00;;;17.90;99.90;;;;;;5161783;28;21088;-57
2023/09/10 02:38:52;;;;;;;16.00;11.37;;;17.80;99.90;;;;;;5154154;28;20253;-47
2023/09/10 02:41:28;;;;;;;16.50;11.00;;;17.80;99.90;;;;;;5156333;28;20299;-47
2023/09/10 02:43:59;;;;;;;13.93;10.37;;;17.80;99.90;;;;;;5157468;28;20172;-48
2023/09/10 02:46:30;;;;;;;13.80;12.40;;;17.80;99.90;;;;;;5156723;28;20571;-48
2023/09/10 02:49:01;;;;;;;15.50;10.77;;;17.70;99.90;;;;;;5159886;28;20192;-48
2023/09/10 02:51:34;;;;;;;14.40;11.63;;;17.70;99.90;;;;;;5153416;28;20217;-48
2023/09/10 02:54:05;;;;;;;14.23;11.10;;;17.70;99.90;;;;;;5152747;28;20177;-48
2023/09/10 02:56:36;;;;;;;14.03;10.40;;;17.70;99.90;;;;;;5154049;28;20460;-48
2023/09/10 02:59:06;;;;;;;13.20;11.00;;;17.70;99.90;;;;;;5158053;28;20186;-48
2023/09/10 03:01:40;;;;;;;11.53;10.27;;;17.60;99.90;;;;;;5153813;28;20292;-48
2023/09/10 03:04:11;;;;;;;12.83;11.53;;;17.60;99.90;;;;;;5158680;28;20177;-48
2023/09/10 03:06:46;;;;;;;24.90;12.83;;;17.60;99.90;;;;;;5156121;28;20507;-48
2023/09/10 03:09:20;;;;;;;22.40;12.00;;;17.60;99.90;;;;;;5150286;28;20189;-48
2023/09/10 03:11:51;;;;;;;12.97;10.60;;;17.60;99.90;;;;;;5156467;28;20506;-48
2023/09/10 03:14:21;;;;;;;15.83;11.90;;;17.60;99.90;;;;;;5154847;28;20824;-48
2023/09/10 03:16:52;;;;;;;16.70;11.03;;;17.60;99.90;;;;;;5156671;28;20280;-48
2023/09/10 03:19:23;;;;;;;17.13;12.57;;;17.60;99.90;;;;;;5154686;28;20193;-48
2023/09/10 03:21:54;;;;;;;17.90;12.20;;;17.60;99.90;;;;;;5156905;28;20292;-47
2023/09/10 03:24:27;;;;;;;14.20;11.47;;;17.50;99.90;;;;;;5157247;28;20180;-48
2023/09/10 03:26:58;;;;;;;21.43;11.30;;;17.50;99.90;;;;;;5148783;28;20234;-48
2023/09/10 03:29:32;;;;;;;12.63;10.60;;;17.40;99.90;;;;;;5157499;28;20435;-48
2023/09/10 03:32:06;;;;;;;12.87;11.47;;;17.50;99.90;;;;;;5152771;28;20271;-48
2023/09/10 03:34:37;;;;;;;18.43;11.33;;;17.40;99.90;;;;;;5155963;28;21035;-47
2023/09/10 03:37:08;;;;;;;15.43;11.17;;;17.40;99.90;;;;;;5156750;28;20496;-47
2023/09/10 03:39:41;;;;;;;14.80;10.87;;;17.40;99.90;;;;;;5156824;28;20932;-47
2023/09/10 03:42:12;;;;;;;17.53;12.10;;;17.40;99.90;;;;;;5152362;28;20920;-47
2023/09/10 03:44:43;;;;;;;16.90;12.30;;;17.40;99.90;;;;;;5152195;28;21013;-48
2023/09/10 03:47:14;;;;;;;17.70;11.70;;;17.40;99.90;;;;;;5157576;28;20180;-48
2023/09/10 03:49:54;;;;;;;16.30;10.63;;;17.40;99.90;;;;;;5147200;28;20242;-48
2023/09/10 03:52:24;;;;;;;13.60;11.63;;;17.30;99.90;;;;;;5151801;28;20612;-48
2023/09/10 03:54:55;;;;;;;14.20;10.60;;;17.40;99.90;;;;;;5161394;28;20557;-47
2023/09/10 03:57:26;;;;;;;18.63;11.47;;;17.40;99.90;;;;;;5160286;28;20197;-47
2023/09/10 03:59:57;;;;;;;23.80;12.60;;;17.30;99.90;;;;;;5151022;28;20170;-47
2023/09/10 04:02:30;;;;;;;24.20;13.33;;;17.30;99.90;;;;;;5155431;28;20197;-47
2023/09/10 04:05:01;;;;;;;17.80;12.50;;;17.20;99.90;;;;;;5156770;28;20436;-48
2023/09/10 04:07:32;;;;;;;14.63;11.07;;;17.20;99.90;;;;;;5151066;28;20437;-48
2023/09/10 04:10:03;;;;;;;15.83;11.43;;;17.10;99.90;;;;;;5148164;28;20178;-47
2023/09/10 04:12:35;;;;;;;17.47;12.67;;;17.10;99.90;;;;;;5159495;28;20316;-47
2023/09/10 04:15:06;;;;;;;16.07;11.90;;;17.10;99.90;;;;;;5156605;28;20917;-47
2023/09/10 04:17:37;;;;;;;16.03;11.57;;;17.00;99.90;;;;;;5156051;28;20496;-47
2023/09/10 04:20:09;;;;;;;21.10;13.20;;;17.00;99.90;;;;;;5153642;28;20441;-47
2023/09/10 04:22:40;;;;;;;16.93;12.10;;;17.00;99.90;;;;;;5150048;28;20228;-47
2023/09/10 04:25:11;;;;;;;13.77;11.27;;;17.00;99.90;;;;;;5166579;28;20476;-48
2023/09/10 04:27:42;;;;;;;14.70;12.73;;;17.00;99.90;;;;;;5158876;28;20448;-47
2023/09/10 04:30:13;;;;;;;20.93;12.60;;;17.00;99.90;;;;;;5160468;28;20536;-47
2023/09/10 04:32:43;;;;;;;18.77;12.00;;;17.10;99.90;;;;;;5155287;28;20247;-47
2023/09/10 04:35:14;;;;;;;14.93;11.93;;;17.10;99.90;;;;;;5157040;28;20220;-47
2023/09/10 04:37:45;;;;;;;17.03;12.07;;;17.00;99.90;;;;;;5139940;28;20178;-48
2023/09/10 04:40:16;;;;;;;18.73;13.50;;;17.00;99.90;;;;;;5157855;28;20185;-48
2023/09/10 04:42:47;;;;;;;18.67;13.30;;;17.00;99.90;;;;;;5154750;28;20185;-47
2023/09/10 04:45:17;;;;;;;18.37;12.97;;;17.00;99.90;;;;;;5158788;28;20185;-47
2023/09/10 04:47:48;;;;;;;19.33;13.50;;;17.00;99.90;;;;;;5157438;28;20189;-48
2023/09/10 04:50:19;;;;;;;14.07;12.00;;;17.10;99.90;;;;;;5159385;28;20217;-47
2023/09/10 04:52:50;;;;;;;16.70;13.13;;;17.10;99.90;;;;;;5149124;28;20178;-48
2023/09/10 04:55:21;;;;;;;18.50;13.40;;;17.10;99.90;;;;;;5159767;28;20224;-48
2023/09/10 04:57:51;;;;;;;17.83;13.60;;;17.10;99.90;;;;;;5153093;28;20193;-48
2023/09/10 05:00:22;;;;;;;15.27;11.97;;;17.20;99.90;;;;;;5158545;28;20986;-48
2023/09/10 05:02:53;;;;;;;25.30;12.50;;;17.20;99.90;;;;;;5157293;28;20173;-47
2023/09/10 05:05:26;;;;;;;17.23;12.37;;;17.20;99.90;;;;;;5154873;28;20185;-48
2023/09/10 05:07:57;;;;;;;19.57;13.37;;;17.30;99.90;;;;;;5155789;28;20261;-48
2023/09/10 05:10:30;;;;;;;16.77;11.30;;;17.30;99.90;;;;;;5158727;28;20550;-47
2023/09/10 05:13:00;;;;;;;18.00;13.07;;;17.30;99.90;;;;;;5155371;28;20177;-48
2023/09/10 05:15:31;;;;;;;16.77;12.97;;;17.40;99.90;;;;;;5153110;28;20468;-48
2023/09/10 05:18:02;;;;;;;19.27;12.63;;;17.70;99.90;;;;;;5164862;28;20181;-47
2023/09/10 05:20:33;;;;;;;18.50;12.43;;;17.80;99.90;;;;;;5159839;28;20201;-47
2023/09/10 05:23:04;;;;;;;19.37;13.20;;;17.80;99.90;;;;;;5150977;28;20181;-47
2023/09/10 05:25:36;;;;;;;21.30;14.10;;;17.90;99.90;;;;;;5157808;28;20177;-48
2023/09/10 05:28:06;;;;;;;21.17;13.47;;;17.90;99.90;;;;;;5160982;28;20231;-47
2023/09/10 05:30:37;;;;;;;29.07;13.27;;;17.90;99.90;;;;;;5161069;28;20460;-48
2023/09/10 05:33:08;;;;;;;17.53;13.30;;;18.00;99.90;;;;;;5156579;28;20177;-47
2023/09/10 05:35:39;;;;;;;18.27;13.37;;;18.10;99.90;;;;;;5159476;28;20208;-47
2023/09/10 05:38:11;;;;;;;20.20;14.30;;;18.20;99.90;;;;;;5159765;28;20188;-49
2023/09/10 05:40:41;;;;;;;21.20;13.07;;;18.30;99.90;;;;;;5151029;28;20284;-48
2023/09/10 05:43:13;;;;;;;18.63;13.10;;;18.40;99.90;;;;;;5160723;28;20456;-48
2023/09/10 05:45:46;;;;;;;24.33;14.23;;;18.50;99.90;;;;;;5159657;28;20535;-49
2023/09/10 05:48:17;;;;;;;22.20;13.00;;;18.50;99.90;;;;;;5154067;28;20350;-48
2023/09/10 05:50:47;;;;;;;15.47;13.07;;;18.60;99.90;;;;;;5156541;28;20479;-50
2023/09/10 05:53:18;;;;;;;22.70;14.27;;;18.80;99.90;;;;;;5141673;28;20554;-49
2023/09/10 05:55:55;;;;;;;14.00;12.60;;;19.00;99.90;;;;;;5156956;28;20582;-48
2023/09/10 05:58:26;;;;;;;17.80;13.07;;;19.70;99.90;;;;;;5151436;28;20208;-48
2023/09/10 06:00:57;;;;;;;17.50;12.60;;;21.80;99.90;;;;;;5150677;28;20468;-49
2023/09/10 06:03:28;;;;;;;20.50;11.80;;;24.60;99.90;;;;;;5153298;28;20448;-48
2023/09/10 06:06:01;;;;;;;14.93;10.80;;;27.20;95.00;;;;;;5154654;28;20185;-48
2023/09/10 06:08:31;;;;;;;13.60;11.20;;;29.10;82.30;;;;;;5155340;28;20212;-50
2023/09/10 06:11:02;;;;;;;17.87;11.63;;;30.80;66.50;;;;;;5153437;28;20468;-49
2023/09/10 06:13:33;;;;;;;20.10;9.70;;;32.10;58.00;;;;;;5173734;28;20192;-49
2023/09/10 06:16:05;;;;;;;14.20;11.10;;;33.40;53.30;;;;;;5171402;28;20287;-50
2023/09/10 06:18:36;;;;;;;10.37;8.73;;;34.50;48.60;;;;;;5152247;28;20510;-49
2023/09/10 06:21:06;;;;;;;13.30;9.63;;;35.10;45.60;;;;;;5159804;28;20483;-49
2023/09/10 06:23:37;;;;;;;10.80;7.83;;;35.60;43.50;;;;;;5153584;28;20645;-49
2023/09/10 06:26:08;;;;;;;12.53;9.57;;;35.90;42.20;;;;;;5152016;28;20197;-49
2023/09/10 06:28:39;;;;;;;12.07;10.07;;;36.20;41.40;;;;;;5127527;28;20188;-49
2023/09/10 06:31:10;;;;;;;11.60;8.97;;;36.60;40.40;;;;;;5152852;28;20221;-50
2023/09/10 06:33:40;;;;;;;13.33;10.00;;;36.70;39.90;;;;;;5154145;28;20651;-50
2023/09/10 06:36:11;;;;;;;10.20;9.20;;;37.10;38.50;;;;;;5157780;28;21929;-49
2023/09/10 06:38:47;;;;;;;9.23;8.30;;;37.50;38.00;;;;;;5153297;28;20653;-49
2023/09/10 06:41:18;;;;;;;11.38;9.32;;;38.00;37.20;;;;;;5152509;28;20232;-49
2023/09/10 06:43:49;;;;;;;12.32;9.60;;;38.60;35.70;;;;;;5155127;28;20527;-49
2023/09/10 06:46:21;;;;;;;12.00;8.57;;;38.90;35.20;;;;;;5156111;28;20184;-50
2023/09/10 06:48:52;;;;;;;13.63;10.85;;;38.90;35.00;;;;;;5152656;28;20312;-49
2023/09/10 06:51:24;;;;;;;11.20;10.00;;;39.00;34.20;;;;;;5153483;28;20289;-49
2023/09/10 06:53:55;;;;;;;11.40;9.00;;;39.00;34.30;;;;;;5135861;28;20316;-50
2023/09/10 06:56:25;;;;;;;9.70;8.15;;;39.30;34.10;;;;;;5169638;28;20314;-49
2023/09/10 06:58:56;;;;;;;18.20;9.50;;;39.90;33.60;;;;;;5150616;28;20590;-50
2023/09/10 07:01:27;;;;;;;13.02;8.60;;;40.10;32.90;;;;;;5158601;28;20207;-49
2023/09/10 07:03:58;;;;;;;11.13;9.48;;;40.50;32.30;;;;;;5149849;28;20665;-50
2023/09/10 07:06:28;;;;;;;13.75;10.18;;;40.50;31.70;;;;;;5149664;28;20192;-51
2023/09/10 07:08:59;;;;;;;10.75;8.65;;;40.40;31.80;;;;;;5151762;28;20259;-51
2023/09/10 07:11:29;;;;;;;8.77;7.88;;;40.80;31.60;;;;;;5148276;28;20589;-50
2023/09/10 07:14:00;;;;;;;11.65;8.88;;;41.30;31.00;;;;;;5156495;28;20664;-50
2023/09/10 07:16:34;;;;;;;10.38;8.63;;;41.40;30.40;;;;;;5153562;28;20282;-51
2023/09/10 07:19:04;;;;;;;9.00;8.10;;;41.70;30.00;;;;;;5151426;28;20184;-50
2023/09/10 07:21:38;;;;;;;9.27;8.43;;;41.90;29.70;;;;;;5149724;28;20217;-50
2023/09/10 07:24:09;;;;;;;10.23;9.20;;;41.90;29.60;;;;;;5146798;28;20189;-50
2023/09/10 07:26:40;;;;;;;9.48;8.48;;;41.80;29.50;;;;;;5149987;28;20216;-51
2023/09/10 07:29:15;;;;;;;10.02;8.77;;;42.00;29.60;;;;;;5148704;28;20205;-49
2023/09/10 07:31:46;;;;;;;7.72;6.95;;;42.20;29.20;;;;;;5149796;28;20216;-50
2023/09/10 07:34:18;;;;;;;9.50;8.15;;;42.30;28.90;;;;;;5146105;28;20188;-50
2023/09/10 07:36:49;;;;;;;10.50;9.05;;;42.20;28.80;;;;;;5153384;28;20193;-50
2023/09/10 07:39:20;;;;;;;10.43;8.35;;;42.00;28.70;;;;;;5149385;28;20602;-50
2023/09/10 07:41:51;;;;;;;8.68;7.78;;;42.00;28.90;;;;;;5151320;28;20588;-50
2023/09/10 07:44:21;;;;;;;13.75;7.43;;;42.20;28.90;;;;;;5149600;28;20255;-49
2023/09/10 07:46:52;;;;;;;11.02;7.72;;;42.50;28.80;;;;;;5158074;28;20271;-49
2023/09/10 07:49:23;;;;;;;7.90;7.00;;;42.60;28.60;;;;;;5158746;28;20184;-49
2023/09/10 07:51:54;;;;;;;12.50;8.27;;;42.50;28.50;;;;;;5158639;28;20296;-50
2023/09/10 07:54:24;;;;;;;14.27;7.40;;;42.60;28.60;;;;;;5155134;28;20273;-50
2023/09/10 07:56:55;;;;;;;7.28;6.55;;;42.50;28.50;;;;;;5153326;28;20192;-48
2023/09/10 07:59:26;;;;;;;14.43;8.35;;;42.50;28.40;;;;;;5152952;28;20242;-50
2023/09/10 08:01:57;;;;;;;7.88;6.72;;;42.40;27.90;;;;;;5153719;28;20204;-50
2023/09/10 08:04:28;;;;;;;11.57;8.02;;;42.00;28.00;;;;;;5156392;28;20296;-48
2023/09/10 08:07:00;;;;;;;10.98;7.20;;;41.50;28.10;;;;;;5143661;28;20708;-48
2023/09/10 08:09:31;;;;;;;11.70;7.85;;;41.10;28.90;;;;;;5155548;28;20623;-49
2023/09/10 08:12:02;;;;;;;7.70;7.05;;;40.30;29.70;;;;;;5158189;28;20299;-48
2023/09/10 08:14:35;;;;;;;9.55;6.75;;;39.30;30.80;;;;;;5159394;28;20479;-48
2023/09/10 08:17:06;;;;;;;6.65;6.00;;;38.20;32.10;;;;;;5158372;28;20288;-49
2023/09/10 08:19:37;;;;;;;8.13;7.30;;;37.30;33.60;;;;;;5160147;28;20193;-49
2023/09/10 08:22:07;;;;;;;5.95;5.45;;;36.50;34.70;;;;;;5157054;28;20685;-48
2023/09/10 08:24:38;;;;;;;8.50;6.97;;;35.50;35.50;;;;;;5159435;28;20187;-49
2023/09/10 08:27:12;;;;;;;6.78;6.18;;;34.60;36.70;;;;;;5153902;28;20189;-51
2023/09/10 08:29:43;;;;;;;8.98;7.95;;;33.70;37.30;;;;;;5155985;28;20541;-47
2023/09/10 08:32:14;;;;;;;8.65;6.88;;;32.70;38.50;;;;;;5158213;28;20215;-48
2023/09/10 08:34:44;;;;;;;15.93;6.57;;;31.60;39.80;;;;;;5159969;28;20293;-49
2023/09/10 08:37:15;;;;;;;8.07;6.20;;;31.00;41.00;;;;;;5157515;28;20739;-49
2023/09/10 08:39:48;;;;;;;10.23;7.80;;;30.40;42.10;;;;;;5151577;28;20191;-49
2023/09/10 08:42:34;;;;;;;9.70;6.77;;;29.90;43.10;;;;;;5164507;28;20283;-48
2023/09/10 08:45:10;;;;;;;9.67;6.97;;;29.50;43.90;;;;;;5158380;28;20210;-47
2023/09/10 08:47:43;;;;;;;8.80;6.53;;;29.10;44.50;;;;;;5153351;28;20457;-48
2023/09/10 08:50:15;;;;;;;9.10;6.57;;;28.80;45.00;;;;;;5151897;28;20530;-48
2023/09/10 08:52:48;;;;;;;12.53;8.20;;;28.70;45.50;;;;;;5150662;28;20446;-48
2023/09/10 08:55:19;;;;;;;8.97;5.20;;;28.50;45.60;;;;;;5154843;28;20514;-48
2023/09/10 08:57:53;;;;;;;8.70;6.70;;;28.30;45.60;;;;;;5153930;28;20447;-48
2023/09/10 09:00:24;;;;;;;10.63;7.33;;;28.20;45.60;;;;;;5161887;28;20442;-48
2023/09/10 09:02:55;;;;;;;7.10;6.33;;;28.10;46.00;;;;;;5157343;28;20434;-47
2023/09/10 09:05:28;;;;;;;9.23;7.50;;;28.00;46.10;;;;;;5157558;28;20550;-49
2023/09/10 09:08:14;;;;;;;7.73;5.67;;;27.90;46.40;;;;;;5149335;28;21417;-49
2023/09/10 09:10:45;;;;;;;6.90;5.70;;;27.90;46.60;;;;;;5154787;28;20477;-48
2023/09/10 09:13:17;;;;;;;9.00;6.17;;;28.00;46.60;;;;;;5157251;28;20487;-49
2023/09/10 09:15:50;;;;;;;6.60;5.63;;;27.90;46.60;;;;;;5160692;28;20558;-48
2023/09/10 09:18:22;;;;;;;6.20;5.60;;;28.00;46.80;;;;;;5156056;28;20447;-48
2023/09/10 09:20:56;;;;;;;5.60;5.20;;;28.10;46.70;;;;;;5154931;28;20971;-50
2023/09/10 09:23:35;;;;;;;6.37;5.63;;;28.20;46.80;;;;;;5152383;28;20446;-46
2023/09/10 09:26:07;;;;;;;6.50;5.90;;;28.40;46.70;;;;;;5157594;28;20581;-48
2023/09/10 09:28:39;;;;;;;6.17;5.57;;;28.40;46.30;;;;;;5160656;28;20485;-48
2023/09/10 09:31:10;;;;;;;9.07;6.63;;;28.40;46.50;;;;;;5152813;28;20471;-48
2023/09/10 09:33:41;;;;;;;6.20;5.17;;;28.30;45.00;;;;;;5158606;28;20455;-49
2023/09/10 09:36:12;;;;;;;5.40;4.90;;;28.30;45.50;;;;;;5153185;28;20524;-48
2023/09/10 09:38:48;;;;;;;8.80;5.90;;;28.20;45.10;;;;;;5153081;28;20195;-50
2023/09/10 09:41:18;;;;;;;6.73;5.30;;;28.30;45.00;;;;;;5151758;28;20228;-49
2023/09/10 09:43:49;;;;;;;6.93;5.33;;;28.30;44.20;;;;;;5155036;28;20436;-48
2023/09/10 09:46:20;;;;;;;5.20;4.60;;;28.40;43.40;;;;;;5149014;28;20181;-48
2023/09/10 09:48:51;;;;;;;5.50;5.00;;;28.40;42.90;;;;;;5162804;28;20204;-48
2023/09/10 09:51:22;;;;;;;3.80;3.60;;;28.20;42.90;;;;;;5158426;28;21013;-47
2023/09/10 09:53:54;;;;;;;7.70;5.30;;;28.20;43.40;;;;;;5157691;28;20192;-47
2023/09/10 09:56:25;;;;;;;6.43;5.37;;;28.20;43.50;;;;;;5159701;28;20382;-48
2023/09/10 09:59:06;;;;;;;5.00;4.40;;;28.30;43.00;;;;;;5164710;28;20523;-48
2023/09/10 10:01:39;;;;;;;4.30;4.00;;;28.30;42.30;;;;;;5158286;28;20215;-48
2023/09/10 10:04:09;;;;;;;4.70;4.23;;;28.30;42.20;;;;;;5162761;28;20525;-49
2023/09/10 10:06:40;;;;;;;5.50;4.73;;;28.40;42.00;;;;;;5159401;28;20439;-47
2023/09/10 10:09:11;;;;;;;3.83;3.63;;;28.40;41.60;;;;;;5155856;28;20342;-48
2023/09/10 10:11:42;;;;;;;5.97;5.13;;;28.40;41.90;;;;;;5163825;28;20775;-48
2023/09/10 10:14:14;;;;;;;8.87;4.43;;;28.50;41.90;;;;;;5162778;28;20192;-48
2023/09/10 10:16:46;;;;;;;5.03;4.13;;;28.50;41.70;;;;;;5166649;28;20464;-49
2023/09/10 10:19:17;;;;;;;4.93;4.37;;;28.40;41.80;;;;;;5159258;28;20447;-48
2023/09/10 10:21:50;;;;;;;5.50;5.00;;;28.40;42.00;;;;;;5164328;28;20999;-48
2023/09/10 10:24:22;;;;;;;8.37;5.13;;;28.40;42.10;;;;;;5160416;28;20527;-48
2023/09/10 10:26:53;;;;;;;5.17;4.33;;;28.40;41.80;;;;;;5146287;28;20527;-48
2023/09/10 10:29:24;;;;;;;6.80;4.53;;;28.40;42.00;;;;;;5161882;28;20487;-49
2023/09/10 10:32:20;;;;;;;4.93;4.53;;;28.50;42.30;;;;;;5161637;28;20491;-48
2023/09/10 10:35:10;;;;;;;3.93;3.67;;;28.60;41.40;;;;;;5159318;28;20205;-47
2023/09/10 10:37:59;;;;;;;5.53;4.17;;;28.60;41.60;;;;;;5157724;28;20435;-50
2023/09/10 10:40:39;;;;;;;3.73;3.53;;;28.60;40.70;;;;;;5156663;28;20467;-49
2023/09/10 10:43:20;;;;;;;6.50;3.80;;;28.70;40.90;;;;;;5135554;28;20442;-49
2023/09/10 16:40:09;;;;;;;6.73;4.57;;;28.00;46.20;;;;;;3502750;26;20485;-50
2023/09/10 16:42:39;;;;;;;3.37;3.17;;;28.00;46.40;;;;;;5201641;28;20437;-48
2023/09/10 16:45:10;;;;;;;4.63;4.23;;;27.90;46.30;;;;;;5197810;28;20227;-49
2023/09/10 16:47:41;;;;;;;5.53;4.97;;;27.90;46.50;;;;;;5194757;28;20226;-47
2023/09/10 16:50:11;;;;;;;6.43;5.50;;;27.80;47.00;;;;;;5190502;28;20184;-48
2023/09/10 16:52:42;;;;;;;11.80;5.80;;;27.70;47.50;;;;;;5198639;28;20267;-50
2023/09/10 16:55:14;;;;;;;7.20;4.70;;;27.60;48.20;;;;;;5191263;28;20192;-49
2023/09/10 16:57:44;;;;;;;9.00;5.40;;;27.50;48.60;;;;;;5198313;28;20706;-49
2023/09/10 17:00:15;;;;;;;5.43;4.30;;;27.30;48.90;;;;;;5201561;28;20522;-48
2023/09/10 17:02:49;;;;;;;5.60;5.00;;;27.20;48.50;;;;;;5192781;28;20186;-50
2023/09/10 17:05:20;;;;;;;6.37;5.10;;;27.20;49.00;;;;;;5191638;28;20688;-50
2023/09/10 17:07:50;;;;;;;12.00;6.53;;;27.00;49.60;;;;;;5190151;28;20443;-50
2023/09/10 17:10:21;;;;;;;8.20;5.90;;;26.90;50.40;;;;;;5193300;28;20185;-49
2023/09/10 17:12:52;;;;;;;11.33;6.37;;;26.70;50.70;;;;;;5193877;28;20180;-50
2023/09/10 17:15:22;;;;;;;14.50;7.17;;;26.60;50.80;;;;;;5197833;28;20189;-49
2023/09/10 17:17:53;;;;;;;9.77;5.97;;;26.50;51.40;;;;;;5195776;28;20532;-50
2023/09/10 17:20:23;;;;;;;8.37;5.77;;;26.30;52.00;;;;;;5197616;28;20542;-50
2023/09/10 17:22:55;;;;;;;7.17;5.90;;;26.20;52.00;;;;;;5189191;28;20191;-51
2023/09/10 17:25:26;;;;;;;19.00;7.13;;;26.10;52.30;;;;;;5198408;28;20668;-49
2023/09/10 17:27:57;;;;;;;7.17;6.13;;;25.90;52.90;;;;;;5194078;28;20631;-49
2023/09/10 17:30:27;;;;;;;17.60;6.20;;;25.90;53.40;;;;;;5199706;28;20470;-50
2023/09/10 17:32:58;;;;;;;15.50;8.33;;;25.70;53.60;;;;;;5194624;28;20438;-49
2023/09/10 17:35:29;;;;;;;17.13;8.20;;;25.60;54.20;;;;;;5199077;28;20176;-50
2023/09/10 17:37:59;;;;;;;38.47;8.93;;;25.60;54.40;;;;;;5189709;28;20231;-49
2023/09/10 17:40:30;;;;;;;15.33;7.63;;;25.40;54.70;;;;;;5191037;28;20223;-50
2023/09/10 17:43:01;;;;;;;16.93;8.70;;;25.40;55.20;;;;;;5186745;28;20189;-50
2023/09/10 17:45:32;;;;;;;10.87;8.03;;;25.30;55.40;;;;;;5191414;28;20348;-51
2023/09/10 17:48:03;;;;;;;12.10;7.97;;;25.20;55.50;;;;;;5197934;28;20180;-50
2023/09/10 17:50:34;;;;;;;12.00;8.70;;;25.10;56.00;;;;;;5190671;28;20483;-49
2023/09/10 17:53:05;;;;;;;14.70;8.50;;;25.00;56.20;;;;;;5193905;28;20797;-49
2023/09/10 17:55:36;;;;;;;9.43;7.97;;;24.90;56.30;;;;;;5187399;28;20207;-50
2023/09/10 17:58:07;;;;;;;10.37;8.27;;;24.80;56.50;;;;;;5190607;28;20247;-50
2023/09/10 18:00:38;;;;;;;11.53;7.57;;;24.70;56.70;;;;;;5170862;28;20431;-50
2023/09/10 18:03:12;;;;;;;13.00;7.97;;;24.70;57.00;;;;;;5197952;28;20271;-50
2023/09/10 18:05:42;;;;;;;14.67;9.63;;;24.60;57.10;;;;;;5193555;28;20185;-50
2023/09/10 18:08:13;;;;;;;24.67;9.30;;;24.50;57.40;;;;;;5197642;28;20448;-53
2023/09/10 18:10:44;;;;;;;12.13;8.53;;;24.40;57.60;;;;;;5197011;28;20625;-49
2023/09/10 18:13:14;;;;;;;21.20;9.37;;;24.40;57.90;;;;;;5172816;28;20259;-50
2023/09/10 18:15:45;;;;;;;19.83;7.97;;;24.30;58.10;;;;;;5192712;28;20201;-50
2023/09/10 18:18:16;;;;;;;19.40;9.30;;;24.20;58.20;;;;;;5197352;28;20172;-50
2023/09/10 18:20:46;;;;;;;13.00;8.37;;;24.20;58.50;;;;;;5193299;28;20537;-50
2023/09/10 18:23:17;;;;;;;20.67;10.87;;;24.10;58.70;;;;;;5194141;28;20201;-51
2023/09/10 18:25:50;;;;;;;19.97;11.40;;;24.00;59.00;;;;;;5193890;28;20184;-49
2023/09/10 18:28:21;;;;;;;35.23;13.60;;;24.00;59.30;;;;;;5197755;28;20419;-49
2023/09/10 18:30:59;;;;;;;20.17;11.30;;;24.00;59.60;;;;;;5195187;28;20451;-50
2023/09/10 18:33:33;;;;;;;20.40;10.47;;;23.90;59.80;;;;;;5189986;28;20188;-50
2023/09/10 18:36:04;;;;;;;21.43;11.50;;;23.80;60.10;;;;;;5183904;28;20482;-51
2023/09/10 18:38:49;;;;;;;17.27;9.43;;;23.80;60.50;;;;;;5193810;28;20430;-50
2023/09/10 18:41:21;;;;;;;18.90;9.37;;;23.70;60.70;;;;;;5180208;28;20243;-51
2023/09/10 18:43:51;;;;;;;14.20;8.87;;;23.70;60.80;;;;;;5189802;28;20522;-51
2023/09/10 18:46:23;;;;;;;17.60;9.83;;;23.70;60.80;;;;;;5196673;28;20529;-51
2023/09/10 18:48:54;;;;;;;18.83;11.30;;;23.60;61.00;;;;;;5195714;28;20223;-50
2023/09/10 18:51:26;;;;;;;14.67;8.70;;;23.60;61.50;;;;;;5191627;28;20451;-50
2023/09/10 18:53:57;;;;;;;14.90;10.37;;;23.50;61.60;;;;;;5196320;28;20188;-49
2023/09/10 18:56:27;;;;;;;15.10;9.67;;;23.40;61.80;;;;;;5192940;28;20548;-49